Time;durP1;ratioP1;P1;durP2;ratioP2;P2;SDS_P1;SDS_P2;PMS_P1;PMS_P2;Temp;Humidity;BMP_temperature;BMP_pressure;BME280_temperature;BME280_humidity;BME280_pressure;Samples;Min_cycle;Max_cycle;Signal;HPM_P1;HPM_P2
2023/01/20 07:55:52;;;;;;;37.00;22.80;;;;;;;-145.79;82.93;79047.91;5279882;28;20395;-67
2023/01/20 07:58:23;;;;;;;32.63;21.77;;;;;;;-145.79;82.80;79052.13;5279577;28;20344;-67
2023/01/20 08:00:55;;;;;;;37.55;22.90;;;;;;;-145.79;83.35;79041.53;5261927;28;20025;-68
2023/01/20 08:03:26;;;;;;;33.95;22.42;;;;;;;-145.79;83.20;79043.66;5258809;28;20144;-69
2023/01/20 08:06:01;;;;;;;34.28;22.88;;;;;;;-145.79;83.39;79052.13;5275647;28;20029;-68
2023/01/20 08:08:33;;;;;;;32.47;22.70;;;;;;;-145.79;83.75;79045.78;5280066;28;20035;-68
2023/01/20 08:11:06;;;;;;;33.25;22.00;;;;;;;-145.79;83.82;79045.78;5278746;28;20468;-67
2023/01/20 08:13:38;;;;;;;31.45;21.52;;;;;;;-145.79;83.81;79039.41;5279043;28;20115;-68
2023/01/20 08:16:12;;;;;;;31.63;21.00;;;;;;;-145.79;83.55;79039.41;5275627;28;20101;-68
2023/01/20 08:18:44;;;;;;;31.90;21.08;;;;;;;-145.79;83.28;79030.94;5258564;28;20032;-68
2023/01/20 08:21:33;;;;;;;33.75;21.65;;;;;;;-145.79;83.73;79016.09;5258936;28;20021;-68
2023/01/20 08:24:05;;;;;;;30.77;21.45;;;;;;;-145.79;83.03;79028.81;5258408;28;20025;-67
2023/01/20 08:26:36;;;;;;;28.23;20.35;;;;;;;-145.79;83.21;79030.94;5258911;28;20341;-68
2023/01/20 08:29:08;;;;;;;28.65;21.40;;;;;;;-145.79;83.01;79028.81;5258552;28;20486;-68
2023/01/20 08:31:41;;;;;;;28.55;20.48;;;;;;;-145.79;83.25;79024.56;5258113;28;20029;-67
2023/01/20 08:34:13;;;;;;;30.75;19.17;;;;;;;-145.79;83.49;79022.44;5270784;28;20532;-67
2023/01/20 08:36:44;;;;;;;23.25;17.50;;;;;;;-145.79;83.05;79013.97;5278994;28;20458;-67
2023/01/20 08:39:17;;;;;;;25.00;18.55;;;;;;;-145.79;83.31;79013.97;5278860;28;20107;-68
2023/01/20 08:41:49;;;;;;;25.10;18.65;;;;;;;-145.79;82.81;79001.25;5278860;28;20031;-68
2023/01/20 08:44:20;;;;;;;23.83;17.48;;;;;;;-145.79;83.53;78988.53;5278957;28;20455;-68
2023/01/20 08:46:55;;;;;;;26.17;17.88;;;;;;;-145.79;82.47;78997.00;5278449;28;20028;-68
2023/01/20 08:49:28;;;;;;;25.40;18.42;;;;;;;-145.79;81.90;79003.34;5278316;28;20361;-69
2023/01/20 08:51:59;;;;;;;23.83;17.45;;;;;;;-145.79;82.65;78997.00;5265952;28;20056;-68
2023/01/20 08:54:33;;;;;;;23.75;17.50;;;;;;;-145.79;82.19;79003.34;5277321;28;20041;-66
2023/01/20 08:57:04;;;;;;;24.42;18.63;;;;;;;-145.79;81.95;79005.47;5278947;28;20033;-67
2023/01/20 08:59:36;;;;;;;22.15;17.20;;;;;;;-145.79;82.09;79011.84;5277855;28;20032;-67
2023/01/20 09:02:09;;;;;;;25.65;18.55;;;;;;;-145.79;82.23;79009.72;5277929;28;20550;-66
2023/01/20 09:04:40;;;;;;;20.77;16.40;;;;;;;-145.79;81.73;79007.59;5278632;28;20021;-68
2023/01/20 09:07:17;;;;;;;22.38;16.35;;;;;;;-145.79;82.27;78997.00;5259911;28;20131;-67
2023/01/20 09:09:48;;;;;;;23.95;18.05;;;;;;;-145.79;82.40;78994.88;5243371;28;20036;-67
2023/01/20 09:12:22;;;;;;;22.13;17.00;;;;;;;-145.79;81.74;79005.47;5243251;28;20464;-68
2023/01/20 09:14:53;;;;;;;23.77;18.23;;;;;;;-145.79;81.82;79003.34;5241666;28;20041;-69
2023/01/20 09:17:25;;;;;;;25.90;19.67;;;;;;;-145.79;81.60;78997.00;5243621;28;20048;-68
2023/01/20 09:19:56;;;;;;;22.65;16.33;;;;;;;-145.79;81.99;78994.88;5243743;28;20067;-69
2023/01/20 09:22:27;;;;;;;24.77;18.85;;;;;;;-145.79;81.58;78988.53;5242994;28;20029;-67
2023/01/20 09:24:59;;;;;;;24.08;18.38;;;;;;;-145.79;81.56;78984.28;5254131;28;20032;-67
2023/01/20 09:27:31;;;;;;;24.85;17.70;;;;;;;-145.79;81.52;78984.28;5262995;28;20456;-67
2023/01/20 09:30:04;;;;;;;22.10;17.23;;;;;;;-145.79;81.07;78990.63;5263118;28;20482;-67
2023/01/20 09:32:35;;;;;;;22.67;17.90;;;;;;;-145.79;81.76;78980.03;5262742;28;20357;-71
2023/01/20 09:35:07;;;;;;;25.40;17.77;;;;;;;-145.79;80.93;78992.75;5245534;28;20040;-68
2023/01/20 09:43:54;;;;;;;21.25;17.25;;;;;;;-145.79;81.32;78992.75;5243099;28;20484;-68
2023/01/20 09:46:32;;;;;;;32.00;23.58;;;;;;;-145.79;81.44;78994.88;5243244;28;20033;-68
2023/01/20 09:55:42;;;;;;;19.05;16.08;;;;;;;-145.79;81.04;79001.25;5242582;28;20057;-68
2023/01/20 09:58:29;;;;;;;18.50;14.52;;;;;;;-145.79;81.10;78994.88;5246023;28;20504;-68
2023/01/20 10:01:20;;;;;;;19.17;15.57;;;;;;;-145.79;80.96;79005.47;5263740;28;20469;-68
2023/01/20 10:04:20;;;;;;;18.35;14.60;;;;;;;-145.79;81.05;78997.00;5263041;28;20480;-67
2023/01/20 10:07:04;;;;;;;16.90;14.18;;;;;;;-145.79;81.29;78997.00;5252718;28;20522;-68
2023/01/20 10:09:40;;;;;;;16.27;13.13;;;;;;;-145.79;81.17;78986.41;5242515;28;20026;-68
2023/01/20 10:12:19;;;;;;;15.80;13.38;;;;;;;-145.79;81.18;78977.91;5242675;28;20021;-68
2023/01/20 10:15:05;;;;;;;16.38;13.32;;;;;;;-145.79;80.86;78980.03;5242393;28;20060;-68
2023/01/20 10:17:50;;;;;;;15.13;12.27;;;;;;;-145.79;80.91;78980.03;5241423;28;20388;-69
2023/01/20 10:20:35;;;;;;;15.15;12.82;;;;;;;-145.79;81.03;78990.63;5243082;28;20045;-67
2023/01/20 10:23:12;;;;;;;12.50;10.90;;;;;;;-145.79;81.03;78997.00;5242219;28;20069;-67
2023/01/20 10:26:03;;;;;;;13.10;10.70;;;;;;;-145.79;81.20;78997.00;5250489;28;20039;-67
2023/01/20 10:28:42;;;;;;;13.93;11.00;;;;;;;-145.79;81.30;78994.88;5262770;28;20124;-68
2023/01/20 10:31:20;;;;;;;13.98;10.88;;;;;;;-145.79;81.55;78992.75;5262618;28;20013;-68
2023/01/20 10:33:55;;;;;;;12.40;11.10;;;;;;;-145.79;81.76;79003.34;5244339;28;20029;-69
2023/01/20 10:36:28;;;;;;;;;;;;;;;-145.79;81.47;78971.56;5242054;28;20029;-69
2023/01/20 10:39:09;;;;;;;11.18;9.57;;;;;;;-145.79;81.50;78980.03;5241948;28;19920;-67
2023/01/20 10:41:48;;;;;;;12.98;10.82;;;;;;;-145.79;81.32;78980.03;5241974;28;20132;-68
2023/01/20 10:44:21;;;;;;;11.32;10.15;;;;;;;-145.79;81.07;78973.69;5241858;28;20049;-68
2023/01/20 10:47:07;;;;;;;12.55;10.55;;;;;;;-145.79;81.44;78963.06;5241355;28;20056;-69
2023/01/20 10:49:57;;;;;;;12.07;10.88;;;;;;;-145.79;80.88;78971.56;5244336;28;20037;-69
2023/01/20 10:52:47;;;;;;;12.63;10.98;;;;;;;-145.79;80.36;78956.72;5241345;28;20033;-68
2023/01/20 10:55:36;;;;;;;11.20;9.48;;;;;;;-145.79;80.40;78967.31;5241273;28;20196;-68
2023/01/20 10:58:24;;;;;;;11.27;9.93;;;;;;;-145.79;80.67;78969.44;5259773;28;20234;-69
2023/01/20 11:01:01;;;;;;;15.65;12.32;;;;;;;-145.79;80.74;78969.44;5241143;28;20038;-69
2023/01/20 11:03:42;;;;;;;13.13;10.90;;;;;;;-145.79;80.89;78973.69;5241513;28;20495;-68
2023/01/20 11:06:24;;;;;;;12.30;10.13;;;;;;;-145.79;81.26;78960.94;5245622;28;20029;-68
2023/01/20 11:08:55;;;;;;;12.20;10.82;;;;;;;-145.79;80.46;78967.31;5258268;28;20056;-70
2023/01/20 11:11:28;;;;;;;13.30;10.40;;;;;;;-145.79;80.62;78969.44;5262230;28;20060;-68
2023/01/20 11:14:00;;;;;;;23.52;18.25;;;;;;;-145.79;80.75;78965.19;5261612;28;20029;-69
2023/01/20 11:16:31;;;;;;;13.30;10.68;;;;;;;-145.79;80.73;78971.56;5261680;28;20025;-69
2023/01/20 11:19:06;;;;;;;13.07;11.63;;;;;;;-145.79;80.49;78975.78;5260974;28;20029;-69
2023/01/20 11:21:39;;;;;;;12.45;11.15;;;;;;;-145.79;80.90;78975.78;5259923;28;20078;-68
2023/01/20 11:24:40;;;;;;;12.57;10.50;;;;;;;-145.79;80.97;78973.69;5253593;28;20475;-69
2023/01/20 11:27:19;;;;;;;14.73;11.02;;;;;;;-145.79;80.67;78975.78;5246171;28;20060;-69
2023/01/20 11:29:56;;;;;;;11.63;10.23;;;;;;;-145.79;80.67;78975.78;5240838;28;20022;-68
2023/01/20 11:32:35;;;;;;;11.98;10.63;;;;;;;-145.79;80.76;78967.31;5239917;28;20029;-68
2023/01/20 11:35:23;;;;;;;12.65;10.25;;;;;;;-145.79;81.29;78958.84;5239953;28;20083;-68
2023/01/20 11:37:54;;;;;;;23.60;18.55;;;;;;;-145.79;80.65;78975.78;5240736;28;20036;-68
2023/01/20 11:40:27;;;;;;;20.15;17.98;;;;;;;-145.79;80.47;78969.44;5246998;28;20025;-68
2023/01/20 11:42:58;;;;;;;14.73;11.32;;;;;;;-145.79;80.75;78990.63;5261307;28;20071;-70
2023/01/20 11:45:33;;;;;;;12.95;10.18;;;;;;;-145.79;81.37;78980.03;5261998;28;20017;-70
2023/01/20 11:48:15;;;;;;;13.10;11.07;;;;;;;-145.79;80.66;78980.03;5261460;28;20017;-71
2023/01/20 11:50:49;;;;;;;13.50;11.52;;;;;;;-145.79;81.11;78982.16;5262040;28;20021;-68
2023/01/20 11:53:30;;;;;;;16.15;11.00;;;;;;;-145.79;80.91;78971.56;5261621;28;20033;-68
2023/01/20 11:56:25;;;;;;;13.00;10.90;;;;;;;-145.79;81.02;78967.31;5261223;28;20021;-68
2023/01/20 11:59:00;;;;;;;14.00;10.52;;;;;;;-145.79;80.99;78950.34;5247325;28;20043;-68
2023/01/20 12:01:50;;;;;;;;;;;;;;;-145.79;81.61;78920.66;5261685;28;20029;-69
2023/01/20 12:04:38;;;;;;;11.60;10.40;;;;;;;-145.79;80.07;78946.09;5260991;28;19912;-69
2023/01/20 12:07:17;;;;;;;12.82;11.05;;;;;;;-145.79;80.05;78937.63;5261555;28;20024;-69
2023/01/20 12:09:53;;;;;;;14.70;11.48;;;;;;;-145.79;80.76;78903.69;5265780;28;20090;-68
2023/01/20 12:12:38;;;;;;;13.95;11.98;;;;;;;-145.79;80.31;78901.56;5261786;28;20487;-70
2023/01/20 12:15:10;;;;;;;13.20;11.55;;;;;;;-145.79;79.44;78899.47;5257252;28;20033;-71
2023/01/20 12:17:47;;;;;;;14.35;11.65;;;;;;;-145.79;79.71;78893.09;5262726;28;20059;-70
2023/01/20 12:20:28;;;;;;;14.73;12.20;;;;;;;-145.79;79.76;78888.84;5260101;28;20460;-70
2023/01/20 12:23:20;;;;;;;12.43;11.13;;;;;;;-145.79;79.54;78886.75;5261583;28;20033;-70
2023/01/20 12:25:58;;;;;;;16.33;13.63;;;;;;;-145.79;79.87;78882.50;5261497;28;20036;-70
2023/01/20 12:28:37;;;;;;;15.15;13.55;;;;;;;-145.79;79.24;78878.25;5261254;28;20079;-69
2023/01/20 12:31:11;;;;;;;14.73;12.70;;;;;;;-145.79;78.65;78890.97;5256726;28;20030;-70
2023/01/20 12:33:44;;;;;;;13.63;12.23;;;;;;;-145.79;78.48;78884.63;5241036;28;20063;-67
2023/01/20 12:36:40;;;;;;;13.10;11.70;;;;;;;-145.79;78.13;78886.75;5240484;28;20087;-68
2023/01/20 12:39:30;;;;;;;14.15;12.40;;;;;;;-145.79;78.44;78874.00;5240749;28;20037;-70
2023/01/20 12:42:21;;;;;;;13.85;12.35;;;;;;;-145.79;78.41;78876.13;5254599;28;20037;-71
2023/01/20 12:44:57;;;;;;;14.68;13.15;;;;;;;-145.79;78.16;78903.69;5265057;28;20491;-69
2023/01/20 12:48:08;;;;;;;15.60;13.55;;;;;;;-145.79;78.89;78914.31;5264658;28;20108;-69
2023/01/20 12:50:57;;;;;;;15.00;13.40;;;;;;;-145.79;79.16;78912.19;5254411;28;20033;-70
2023/01/20 12:54:05;;;;;;;16.20;14.48;;;;;;;-145.79;79.67;78916.41;5264402;28;20155;-70
2023/01/20 12:57:13;;;;;;;14.75;13.23;;;;;;;-145.79;80.03;78924.91;5259665;28;20026;-69
2023/01/20 13:00:13;;;;;;;15.48;13.30;;;;;;;-145.79;79.75;78950.34;5243827;28;20560;-68
2023/01/20 13:03:22;;;;;;;14.95;13.45;;;;;;;-145.79;80.01;78931.25;5251861;28;20096;-68
2023/01/20 13:06:12;;;;;;;21.13;17.33;;;;;;;-145.79;79.89;78944.00;5251882;28;20033;-68
2023/01/20 13:08:49;;;;;;;18.33;16.42;;;;;;;-145.79;79.69;78950.34;5264219;28;20025;-68
2023/01/20 13:11:53;;;;;;;17.23;15.43;;;;;;;-145.79;80.30;78939.75;5263473;28;20029;-68
2023/01/20 13:14:45;;;;;;;16.17;14.23;;;;;;;-145.79;80.22;78937.63;5264435;28;20110;-67
2023/01/20 13:17:33;;;;;;;14.70;13.25;;;;;;;-145.79;80.43;78924.91;5264470;28;20032;-69
2023/01/20 13:20:18;;;;;;;21.77;19.42;;;;;;;-145.79;79.83;78929.16;5263444;28;20040;-68
2023/01/20 13:22:51;;;;;;;15.30;13.77;;;;;;;-145.79;79.39;78948.22;5258256;28;20025;-68
2023/01/20 13:25:23;;;;;;;17.05;14.68;;;;;;;-145.79;79.74;78965.19;5264533;28;20041;-69
2023/01/20 13:27:55;;;;;;;23.48;18.88;;;;;;;-145.79;79.58;78967.31;5257732;28;20032;-70
2023/01/20 13:30:36;;;;;;;16.90;15.20;;;;;;;-145.79;80.38;78967.31;5263636;28;20478;-68
2023/01/20 13:33:29;;;;;;;15.63;13.43;;;;;;;-145.79;80.51;78967.31;5263537;28;20036;-68
2023/01/20 13:36:21;;;;;;;17.70;15.43;;;;;;;-145.79;81.12;78954.59;5263763;28;20454;-69
2023/01/20 13:39:38;;;;;;;17.05;15.05;;;;;;;-145.79;80.91;78950.34;5261813;28;20025;-69
2023/01/20 13:42:37;;;;;;;18.33;15.48;;;;;;;-145.79;81.00;78950.34;5242634;28;20024;-69
2023/01/20 13:45:18;;;;;;;28.20;20.73;;;;;;;-145.79;80.92;78960.94;5243507;28;20041;-69
2023/01/20 13:47:51;;;;;;;19.42;16.83;;;;;;;-145.79;80.46;78975.78;5242917;28;20453;-69
2023/01/20 13:50:27;;;;;;;18.90;15.90;;;;;;;-145.79;81.29;78960.94;5243866;28;20033;-69
2023/01/20 13:52:58;;;;;;;17.80;15.50;;;;;;;-145.79;81.09;78969.44;5242247;28;20021;-70
2023/01/20 13:55:50;;;;;;;18.17;15.18;;;;;;;-145.79;80.92;78963.06;5242395;28;20492;-68
2023/01/20 13:58:30;;;;;;;17.02;15.32;;;;;;;-145.79;80.84;78967.31;5243686;28;20025;-68
2023/01/20 14:01:08;;;;;;;15.82;14.27;;;;;;;-145.79;81.13;78971.56;5242799;28;20471;-68
2023/01/20 14:03:40;;;;;;;15.95;14.25;;;;;;;-145.79;81.56;78969.44;5242183;28;20128;-69
2023/01/20 14:06:11;;;;;;;19.83;15.82;;;;;;;-145.79;81.13;78977.91;5249143;28;20045;-69
2023/01/20 14:08:48;;;;;;;17.20;15.27;;;;;;;-145.79;81.37;78977.91;5242501;28;20078;-69
2023/01/20 14:11:25;;;;;;;18.92;14.10;;;;;;;-145.79;81.50;78984.28;5242904;28;20132;-69
2023/01/20 14:13:57;;;;;;;18.92;15.40;;;;;;;-145.79;81.50;78992.75;5246172;28;20033;-68
2023/01/20 14:16:37;;;;;;;23.48;19.40;;;;;;;-145.79;81.75;78986.41;5242048;28;20154;-68
2023/01/20 14:19:45;;;;;;;48.47;37.20;;;;;;;-145.79;81.59;78980.03;5242756;28;20164;-68
2023/01/20 14:22:28;;;;;;;17.13;15.32;;;;;;;-145.79;81.84;78980.03;5253158;28;20060;-68
2023/01/20 14:25:01;;;;;;;22.75;16.98;;;;;;;-145.79;81.79;78994.88;5263050;28;20025;-68
2023/01/20 14:27:36;;;;;;;20.60;16.98;;;;;;;-145.79;81.78;79001.25;5262933;28;20390;-67
2023/01/20 14:30:20;;;;;;;20.55;16.17;;;;;;;-145.79;81.87;78992.75;5258670;28;20162;-68
2023/01/20 14:32:52;;;;;;;19.83;17.00;;;;;;;-145.79;81.37;78997.00;5242400;28;20101;-68
2023/01/20 14:35:30;;;;;;;21.00;18.20;;;;;;;-145.79;81.64;78988.53;5255593;28;20171;-69
2023/01/20 14:38:01;;;;;;;27.75;23.15;;;;;;;-145.79;80.78;79016.09;5261961;28;20056;-68
2023/01/20 14:40:34;;;;;;;19.38;17.30;;;;;;;-145.79;80.99;79020.31;5260039;28;20100;-69
2023/01/20 14:43:21;;;;;;;19.67;17.58;;;;;;;-145.79;81.63;79013.97;5243159;28;20116;-69
2023/01/20 14:45:53;;;;;;;20.77;17.33;;;;;;;-145.79;80.96;79028.81;5241901;28;20091;-69
2023/01/20 14:48:24;;;;;;;20.90;17.23;;;;;;;-145.79;81.01;79047.91;5255694;28;20025;-69
2023/01/20 14:50:56;;;;;;;18.58;16.58;;;;;;;-145.79;81.85;79030.94;5262614;28;20025;-69
2023/01/20 14:53:27;;;;;;;19.65;16.70;;;;;;;-145.79;81.88;79030.94;5262103;28;20041;-70
2023/01/20 14:56:01;;;;;;;23.02;17.45;;;;;;;-145.79;82.08;79041.53;5244450;28;20045;-69
2023/01/20 14:58:33;;;;;;;23.42;17.52;;;;;;;-145.79;82.11;79043.66;5247676;28;20017;-70
2023/01/20 15:01:05;;;;;;;24.25;18.60;;;;;;;-145.79;82.15;79033.06;5262338;28;20087;-71
2023/01/20 15:03:36;;;;;;;26.63;20.30;;;;;;;-145.79;82.62;79022.44;5261010;28;20029;-68
2023/01/20 15:06:08;;;;;;;33.92;26.30;;;;;;;-145.79;82.47;79013.97;5252681;28;20036;-69
2023/01/20 15:08:39;;;;;;;22.80;18.40;;;;;;;-145.79;82.24;79026.69;5262617;28;20036;-70
2023/01/20 15:11:20;;;;;;;20.48;17.98;;;;;;;-145.79;81.91;79028.81;5262653;28;20086;-70
2023/01/20 15:13:57;;;;;;;23.05;18.17;;;;;;;-145.79;81.63;79030.94;5255037;28;20391;-70
2023/01/20 15:16:34;;;;;;;21.60;17.98;;;;;;;-145.79;81.75;79037.28;5241885;28;20025;-70
2023/01/20 15:19:21;;;;;;;19.17;16.65;;;;;;;-145.79;81.80;79026.69;5241789;28;20091;-70
2023/01/20 15:21:55;;;;;;;18.45;14.90;;;;;;;-145.79;81.32;79018.19;5242573;28;20504;-69
2023/01/20 15:24:31;;;;;;;18.15;16.25;;;;;;;-145.79;80.97;79022.44;5240406;28;20113;-69
2023/01/20 15:27:25;;;;;;;17.35;15.25;;;;;;;-145.79;81.04;79033.06;5247578;28;20029;-68
2023/01/20 15:30:18;;;;;;;18.88;15.13;;;;;;;-145.79;81.15;79033.06;5249301;28;20029;-68
2023/01/20 15:32:50;;;;;;;16.98;15.18;;;;;;;-145.79;81.33;79043.66;5241506;28;20026;-70
2023/01/20 15:35:26;;;;;;;15.93;14.30;;;;;;;-145.79;80.80;79050.00;5240087;28;20187;-69
2023/01/20 15:38:00;;;;;;;;;;;;;;;-145.79;80.88;79026.69;5241928;28;20059;-69
2023/01/20 15:40:31;;;;;;;18.90;14.45;;;;;;;-145.79;80.80;79050.00;5240775;28;19909;-69
2023/01/20 15:43:12;;;;;;;15.52;13.55;;;;;;;-145.79;80.57;79047.91;5241552;28;20022;-68
2023/01/20 15:45:44;;;;;;;14.75;13.10;;;;;;;-145.79;80.42;79073.34;5240678;28;20026;-68
2023/01/20 15:48:20;;;;;;;15.60;14.02;;;;;;;-145.79;81.02;79060.63;5241238;28;20104;-69
2023/01/20 15:50:51;;;;;;;16.05;14.35;;;;;;;-145.79;81.07;79052.13;5242469;28;20022;-70
2023/01/20 15:53:22;;;;;;;16.58;14.63;;;;;;;-145.79;79.94;79077.56;5252768;28;20430;-69
2023/01/20 15:55:53;;;;;;;16.48;14.48;;;;;;;-145.79;80.38;79083.94;5262135;28;20024;-69
2023/01/20 15:58:27;;;;;;;19.30;16.58;;;;;;;-145.79;81.07;79073.34;5268908;28;20474;-69
2023/01/20 16:00:59;;;;;;;19.45;16.63;;;;;;;-145.79;80.43;79094.53;5248098;28;20095;-66
2023/01/20 16:03:33;;;;;;;20.67;16.58;;;;;;;-145.79;80.80;79098.78;5248027;28;20096;-65
2023/01/20 16:06:13;;;;;;;22.75;17.88;;;;;;;-145.79;80.94;79090.31;5258552;28;20025;-66
2023/01/20 16:08:46;;;;;;;23.77;17.27;;;;;;;-145.79;80.75;79107.25;5270837;28;20343;-69
2023/01/20 16:11:18;;;;;;;21.85;18.17;;;;;;;-145.79;80.31;79128.47;5271395;28;20029;-68
2023/01/20 16:13:50;;;;;;;21.98;17.42;;;;;;;-145.79;80.46;79132.72;5268258;28;20058;-68
2023/01/20 16:16:23;;;;;;;28.13;22.35;;;;;;;-145.79;81.66;79122.09;5273789;28;20041;-66
2023/01/20 16:18:54;;;;;;;21.27;16.40;;;;;;;-145.79;81.55;79120.00;5279573;28;20033;-68
2023/01/20 16:21:25;;;;;;;24.30;20.73;;;;;;;-145.79;81.19;79132.72;5278038;28;20094;-67
2023/01/20 16:24:06;;;;;;;20.08;17.23;;;;;;;-145.79;81.60;79128.47;5277179;28;20029;-69
2023/01/20 16:26:37;;;;;;;21.60;15.93;;;;;;;-145.79;81.38;79132.72;5277569;28;20036;-66
2023/01/20 16:29:11;;;;;;;22.13;17.95;;;;;;;-145.79;81.26;79132.72;5274426;28;20025;-68
2023/01/20 16:31:42;;;;;;;18.95;16.52;;;;;;;-145.79;81.18;79145.44;5257942;28;20018;-66
